createdAt,value
2019-01-02T00:00:03.557Z,100.00
2019-01-02T00:02:32.593Z,100.00
2019-01-02T00:05:20.429Z,100.00
2019-01-02T00:08:08.348Z,100.00
2019-01-02T00:10:38.778Z,100.00
2019-01-02T00:15:55.101Z,100.00
2019-01-02T00:18:25.530Z,100.00
2019-01-02T00:21:13.483Z,100.00
2019-01-02T00:24:01.312Z,100.00
2019-01-02T00:27:10.108Z,100.00
2019-01-02T00:29:40.528Z,100.00
2019-01-02T00:32:09.234Z,100.00
2019-01-02T00:34:39.660Z,100.00
2019-01-02T00:37:08.399Z,100.00
2019-01-02T00:39:38.818Z,100.00
2019-01-02T00:42:07.524Z,100.00
2019-01-02T00:44:36.215Z,100.00
2019-01-02T00:50:32.191Z,100.00
2019-01-02T00:53:12.558Z,100.00
2019-01-02T00:55:50.760Z,100.00
2019-01-02T00:58:38.670Z,100.00
2019-01-02T01:01:26.513Z,100.00
2019-01-02T01:04:16.042Z,100.00
2019-01-02T01:07:03.859Z,100.00
2019-01-02T01:09:51.776Z,100.00
2019-01-02T01:12:22.186Z,100.00
2019-01-02T01:14:50.941Z,100.00
2019-01-02T01:17:21.372Z,100.00
2019-01-02T01:19:50.145Z,100.00
2019-01-02T01:22:18.968Z,100.00
2019-01-02T01:24:47.676Z,100.00
2019-01-02T01:27:18.099Z,100.00
2019-01-02T01:30:06.084Z,100.00
2019-01-02T01:32:34.753Z,100.00
2019-01-02T01:35:03.478Z,100.00
2019-01-02T01:37:51.447Z,100.00
2019-01-02T01:40:20.143Z,100.00
2019-01-02T01:42:48.901Z,100.00
2019-01-02T01:45:36.921Z,100.00
2019-01-02T01:48:24.745Z,100.00
2019-01-02T01:54:00.274Z,100.00
2019-01-02T01:59:24.152Z,100.00
2019-01-02T02:01:52.816Z,100.00
2019-01-02T02:04:40.757Z,100.00
2019-01-02T02:07:11.245Z,100.00
2019-01-02T02:09:59.361Z,100.00
2019-01-02T02:12:47.383Z,100.00
2019-01-02T02:15:35.139Z,100.00
2019-01-02T02:18:03.850Z,100.00
2019-01-02T02:20:32.543Z,100.00
2019-01-02T02:23:20.439Z,100.00
2019-01-02T02:25:49.146Z,100.00
2019-01-02T02:28:17.915Z,100.00
2019-01-02T02:30:46.592Z,100.00
2019-01-02T02:33:17.035Z,100.00
2019-01-02T02:35:47.415Z,100.00
2019-01-02T02:38:17.849Z,100.00
2019-01-02T02:40:48.243Z,100.00
2019-01-02T02:43:16.904Z,100.00
2019-01-02T02:45:45.713Z,100.00
2019-01-02T02:48:16.154Z,100.00
2019-01-02T02:50:46.585Z,100.00
2019-01-02T02:53:15.435Z,100.00
2019-01-02T02:56:05.133Z,100.00
2019-01-02T02:58:35.569Z,100.00
2019-01-02T03:01:06.083Z,99.87
2019-01-02T03:03:55.603Z,100.00
2019-01-02T03:06:26.055Z,100.00
2019-01-02T03:08:56.461Z,100.00
2019-01-02T03:11:25.218Z,99.60
2019-01-02T03:13:55.688Z,99.60
2019-01-02T03:16:45.837Z,98.50
2019-01-02T03:19:15.605Z,98.75
2019-01-02T03:22:05.283Z,98.33
2019-01-02T03:24:35.643Z,98.99
2019-01-02T03:27:06.121Z,99.23
2019-01-02T03:29:54.166Z,98.74
2019-01-02T03:32:42.099Z,98.68
2019-01-02T03:35:12.600Z,99.27
2019-01-02T03:40:49.498Z,99.23
2019-01-02T03:46:05.829Z,98.45
2019-01-02T03:48:34.598Z,98.80
2019-01-02T03:53:38.735Z,98.77
2019-01-02T03:56:07.436Z,98.33
2019-01-02T03:58:55.416Z,98.61
2019-01-02T04:01:43.320Z,98.54
2019-01-02T04:04:31.348Z,98.97
2019-01-02T04:07:00.028Z,99.06
2019-01-02T04:09:28.787Z,98.76
2019-01-02T04:12:16.760Z,99.20
2019-01-02T04:14:45.536Z,99.60
2019-01-02T04:17:14.370Z,100.00
2019-01-02T04:19:43.161Z,100.00
2019-01-02T04:22:11.911Z,100.00
2019-01-02T04:24:40.648Z,100.00
2019-01-02T04:27:09.493Z,100.00
2019-01-02T04:29:38.154Z,100.00
2019-01-02T04:32:26.115Z,100.00
2019-01-02T04:35:14.082Z,100.00
2019-01-02T04:37:42.749Z,100.00
2019-01-02T04:40:51.250Z,100.00
2019-01-02T04:43:39.199Z,100.00
2019-01-02T04:46:07.893Z,100.00
2019-01-02T04:48:36.620Z,100.00
2019-01-02T04:53:39.820Z,100.00
2019-01-02T04:56:08.607Z,100.00
2019-01-02T04:58:37.371Z,99.96
2019-01-02T05:01:06.079Z,99.55
2019-01-02T05:03:34.826Z,99.85
2019-01-02T05:06:22.805Z,99.86
2019-01-02T05:08:51.567Z,99.79
2019-01-02T05:11:20.231Z,99.89
2019-01-02T05:13:49.009Z,100.00
2019-01-02T05:16:36.940Z,100.00
2019-01-02T05:19:24.991Z,99.99
2019-01-02T05:22:12.898Z,99.49
2019-01-02T05:25:00.768Z,99.08
2019-01-02T05:27:29.561Z,98.53
2019-01-02T05:29:58.226Z,98.45
2019-01-02T05:32:46.274Z,97.96
2019-01-02T05:35:15.004Z,97.90
2019-01-02T05:38:02.828Z,98.03
2019-01-02T05:40:50.736Z,98.10
2019-01-02T05:43:19.456Z,97.59
2019-01-02T05:48:36.245Z,97.53
2019-01-02T05:51:24.044Z,96.81
2019-01-02T05:53:52.752Z,96.97
2019-01-02T05:58:55.960Z,96.86
2019-01-02T06:01:43.920Z,97.16
2019-01-02T06:04:31.842Z,96.25
2019-01-02T06:07:00.615Z,96.66
2019-01-02T06:09:29.503Z,95.93
2019-01-02T06:12:17.401Z,95.96
2019-01-02T06:15:05.358Z,96.23
2019-01-02T06:17:53.329Z,96.47
2019-01-02T06:20:41.248Z,96.33
2019-01-02T06:23:10.077Z,96.30
2019-01-02T06:25:38.781Z,96.21
2019-01-02T06:28:26.569Z,96.05
2019-01-02T06:30:55.274Z,95.97
2019-01-02T06:33:24.062Z,95.65
2019-01-02T06:36:12.017Z,94.99
2019-01-02T06:38:59.970Z,95.35
2019-01-02T06:41:47.935Z,95.01
2019-01-02T06:44:35.899Z,94.56
2019-01-02T06:47:04.800Z,93.45
2019-01-02T06:49:52.837Z,93.44
2019-01-02T06:55:28.469Z,93.82
2019-01-02T06:58:16.434Z,93.91
2019-01-02T07:01:04.388Z,93.46
2019-01-02T07:03:33.176Z,93.70
2019-01-02T07:06:21.201Z,94.19
2019-01-02T07:09:09.143Z,94.01
2019-01-02T07:11:56.969Z,93.69
2019-01-02T07:14:25.652Z,93.68
2019-01-02T07:19:47.571Z,94.21
2019-01-02T07:22:35.564Z,94.06
2019-01-02T07:27:58.870Z,93.29
2019-01-02T07:34:14.298Z,93.56
2019-01-02T07:37:22.812Z,93.45
2019-01-02T07:40:30.016Z,93.28
2019-01-02T07:43:37.250Z,93.17
2019-01-02T07:46:45.801Z,93.45
2019-01-02T07:49:53.016Z,93.94
2019-01-02T07:53:01.456Z,94.41
2019-01-02T07:56:08.673Z,93.62
2019-01-02T07:59:17.218Z,94.02
2019-01-02T08:02:25.600Z,93.76
2019-01-02T08:05:33.374Z,92.96
2019-01-02T08:08:41.869Z,93.03
2019-01-02T08:11:49.109Z,93.94
2019-01-02T08:15:03.117Z,93.69
2019-01-02T08:18:07.863Z,93.48
2019-01-02T08:21:16.366Z,93.73
2019-01-02T08:24:23.622Z,94.22
2019-01-02T08:27:30.797Z,93.27
2019-01-02T08:30:39.340Z,92.62
2019-01-02T08:33:47.838Z,92.13
2019-01-02T08:36:56.353Z,92.61
2019-01-02T08:40:05.203Z,93.10
2019-01-02T08:43:13.678Z,92.99
2019-01-02T08:46:20.949Z,93.72
2019-01-02T08:49:28.176Z,93.15
2019-01-02T08:52:35.448Z,92.61
2019-01-02T08:55:43.944Z,92.55
2019-01-02T08:58:51.207Z,92.89
2019-01-02T09:01:58.447Z,92.90
2019-01-02T09:05:05.640Z,92.23
2019-01-02T09:08:14.139Z,92.31
2019-01-02T09:11:21.371Z,92.17
2019-01-02T09:14:28.729Z,92.31
2019-01-02T09:17:37.439Z,92.60
2019-01-02T09:20:46.224Z,91.58
2019-01-02T09:23:53.903Z,91.37
2019-01-02T09:27:03.543Z,90.69
2019-01-02T09:30:13.231Z,90.98
2019-01-02T09:33:23.544Z,91.20
2019-01-02T09:36:30.940Z,90.95
2019-01-02T09:39:39.619Z,90.87
2019-01-02T09:42:46.840Z,90.93
2019-01-02T09:45:54.036Z,89.70
2019-01-02T09:49:02.525Z,90.69
2019-01-02T09:52:09.704Z,91.23
2019-01-02T09:55:18.184Z,91.19
2019-01-02T09:58:25.383Z,91.25
2019-01-02T10:01:32.608Z,91.54
2019-01-02T10:04:39.810Z,91.28
2019-01-02T10:07:47.055Z,91.81
2019-01-02T10:10:54.273Z,91.44
2019-01-02T10:14:02.770Z,91.88
2019-01-02T10:17:11.276Z,91.91
2019-01-02T10:20:18.566Z,91.90
2019-01-02T10:23:25.796Z,91.71
2019-01-02T10:26:33.033Z,91.07
2019-01-02T10:29:41.850Z,92.18
2019-01-02T10:32:50.353Z,92.31
2019-01-02T10:35:57.550Z,92.50
2019-01-02T10:39:04.872Z,93.69
2019-01-02T10:42:13.375Z,92.32
2019-01-02T10:45:20.603Z,92.12
2019-01-02T10:48:29.268Z,91.38
2019-01-02T10:51:37.804Z,92.46
2019-01-02T10:54:45.033Z,92.65
2019-01-02T10:57:53.591Z,93.03
2019-01-02T11:01:02.069Z,92.41
2019-01-02T11:04:10.551Z,92.44
2019-01-02T11:07:17.821Z,92.51
2019-01-02T11:10:26.304Z,93.43
2019-01-02T11:13:33.527Z,93.51
2019-01-02T11:16:40.999Z,94.06
2019-01-02T11:19:48.467Z,95.64
2019-01-02T11:22:55.759Z,96.27
2019-01-02T11:26:02.970Z,97.86
2019-01-02T11:29:10.211Z,99.19
2019-01-02T11:32:17.628Z,100.00
2019-01-02T11:35:24.830Z,100.00
2019-01-02T11:38:32.085Z,100.00
2019-01-02T11:41:40.638Z,100.00
2019-01-02T11:44:49.218Z,100.00
2019-01-02T11:47:17.948Z,99.46
2019-01-02T11:49:46.755Z,97.96
2019-01-02T11:52:34.768Z,98.11
2019-01-02T11:55:22.691Z,97.64
2019-01-02T11:58:10.693Z,96.42
2019-01-02T12:00:58.651Z,96.07
2019-01-02T12:08:49.268Z,95.93
2019-01-02T12:11:37.401Z,94.96
2019-01-02T12:14:25.374Z,95.40
2019-01-02T12:16:54.041Z,95.63
2019-01-02T12:19:43.102Z,95.49
2019-01-02T12:25:45.312Z,95.69
2019-01-02T12:28:14.101Z,94.89
2019-01-02T12:30:42.878Z,94.18
2019-01-02T12:33:11.534Z,93.53
2019-01-02T12:35:40.288Z,93.01
2019-01-02T12:38:28.129Z,91.79
2019-01-02T12:40:56.901Z,91.21
2019-01-02T12:43:25.642Z,90.70
2019-01-02T12:45:54.387Z,90.84
2019-01-02T12:48:23.171Z,90.57
2019-01-02T12:53:26.272Z,89.91
2019-01-02T12:55:55.126Z,89.83
2019-01-02T12:58:23.823Z,90.58
2019-01-02T13:01:32.307Z,90.46
2019-01-02T13:04:40.862Z,89.76
2019-01-02T13:07:48.071Z,90.81
2019-01-02T13:10:56.625Z,89.78
2019-01-02T13:14:05.147Z,89.34
2019-01-02T13:17:13.676Z,88.99
2019-01-02T13:20:20.992Z,90.19
2019-01-02T13:23:29.501Z,91.14
2019-01-02T13:26:38.001Z,91.85
2019-01-02T13:29:45.236Z,92.55
2019-01-02T13:32:53.749Z,89.69
2019-01-02T13:36:02.257Z,88.31
2019-01-02T13:39:10.765Z,86.74
2019-01-02T13:42:19.303Z,82.54
2019-01-02T13:45:27.753Z,83.56
2019-01-02T13:48:34.923Z,84.38
2019-01-02T13:51:43.387Z,85.33
2019-01-02T13:54:31.225Z,85.80
2019-01-02T13:57:19.143Z,86.39
2019-01-02T13:59:47.926Z,86.69
2019-01-02T14:02:16.650Z,87.08
2019-01-02T14:05:25.148Z,87.22
2019-01-02T14:08:13.100Z,86.69
2019-01-02T14:10:41.797Z,86.38
2019-01-02T14:13:10.517Z,86.20
2019-01-02T14:15:39.182Z,87.02
2019-01-02T14:18:07.916Z,87.27
2019-01-02T14:20:55.878Z,87.76
2019-01-02T14:23:43.921Z,88.76
2019-01-02T14:26:31.912Z,88.98
2019-01-02T14:29:19.875Z,90.17
2019-01-02T14:36:56.938Z,89.85
2019-01-02T14:39:44.853Z,90.33
2019-01-02T14:42:32.822Z,91.10
2019-01-02T14:45:20.783Z,93.03
2019-01-02T14:48:08.694Z,94.28
2019-01-02T14:50:56.640Z,96.50
2019-01-02T14:53:44.618Z,99.09
2019-01-02T14:56:32.537Z,100.00
2019-01-02T14:59:01.259Z,100.00
2019-01-02T15:01:49.171Z,100.00
2019-01-02T15:04:17.889Z,100.00
2019-01-02T15:06:46.607Z,100.00
2019-01-02T15:09:15.333Z,100.00
2019-01-02T15:12:03.349Z,100.00
2019-01-02T15:14:51.479Z,100.00
2019-01-02T15:17:39.466Z,100.00
2019-01-02T15:20:47.911Z,100.00
2019-01-02T15:23:35.766Z,100.00
2019-01-02T15:26:04.562Z,100.00
2019-01-02T15:28:52.406Z,100.00
2019-01-02T15:31:40.368Z,100.00
2019-01-02T15:34:28.348Z,100.00
2019-01-02T15:37:16.266Z,100.00
2019-01-02T15:39:44.977Z,100.00
2019-01-02T15:42:32.815Z,100.00
2019-01-02T15:45:20.658Z,100.00
2019-01-02T15:47:49.325Z,100.00
2019-01-02T15:52:52.343Z,100.00
2019-01-02T15:55:21.015Z,100.00
2019-01-02T15:57:49.796Z,100.00
2019-01-02T16:00:18.454Z,100.00
2019-01-02T16:02:47.224Z,100.00
2019-01-02T16:05:15.986Z,100.00
2019-01-02T16:07:44.727Z,100.00
2019-01-02T16:10:13.503Z,100.00
2019-01-02T16:13:01.432Z,100.00
2019-01-02T16:18:04.426Z,100.00
2019-01-02T16:20:33.098Z,100.00
2019-01-02T16:23:01.821Z,100.00
2019-01-02T16:25:30.539Z,100.00
2019-01-02T16:27:59.193Z,100.00
2019-01-02T16:30:27.971Z,100.00
2019-01-02T16:32:56.667Z,99.52
2019-01-02T16:35:25.383Z,98.26
2019-01-02T16:37:54.099Z,98.02
2019-01-02T16:40:30.109Z,98.34
2019-01-02T16:42:58.812Z,98.64
2019-01-02T16:48:53.549Z,98.63
2019-01-02T16:51:41.900Z,97.46
2019-01-02T16:54:12.299Z,96.03
2019-01-02T16:57:00.269Z,95.05
2019-01-02T16:59:28.965Z,94.85
2019-01-02T17:01:57.612Z,94.79
2019-01-02T17:04:26.335Z,94.46
2019-01-02T17:06:55.053Z,94.12
2019-01-02T17:09:23.747Z,94.68
2019-01-02T17:12:11.703Z,94.59
2019-01-02T17:14:59.511Z,94.94
2019-01-02T17:17:47.607Z,95.53
2019-01-02T17:20:35.645Z,95.98
2019-01-02T17:23:23.676Z,96.32
2019-01-02T17:26:11.589Z,96.21
2019-01-02T17:28:59.428Z,95.74
2019-01-02T17:31:47.346Z,95.91
2019-01-02T17:34:16.069Z,96.54
2019-01-02T17:37:04.109Z,96.45
2019-01-02T17:39:52.060Z,96.59
2019-01-02T17:42:20.850Z,96.68
2019-01-02T17:44:49.621Z,96.62
2019-01-02T17:50:11.566Z,96.41
2019-01-02T17:52:59.486Z,94.50
2019-01-02T17:55:47.473Z,92.65
2019-01-02T17:58:35.441Z,92.49
2019-01-02T18:01:44.046Z,92.55
2019-01-02T18:09:54.399Z,89.39
2019-01-02T18:12:42.344Z,88.37
2019-01-02T18:15:11.121Z,88.75
2019-01-02T18:17:59.100Z,87.84
2019-01-02T18:20:46.999Z,88.01
2019-01-02T18:23:34.977Z,86.55
2019-01-02T18:26:22.961Z,86.34
2019-01-02T18:29:10.923Z,85.13
2019-01-02T18:31:58.781Z,86.09
2019-01-02T18:34:46.781Z,86.07
2019-01-02T18:37:34.753Z,85.77
2019-01-02T18:40:03.641Z,85.38
2019-01-02T18:42:51.444Z,85.33
2019-01-02T18:45:39.367Z,85.81
2019-01-02T18:48:27.359Z,86.33
2019-01-02T18:51:15.200Z,86.29
2019-01-02T18:54:03.190Z,86.23
2019-01-02T18:56:51.281Z,85.31
2019-01-02T18:59:39.367Z,85.80
2019-01-02T19:02:28.927Z,86.31
2019-01-02T19:11:31.942Z,85.85
2019-01-02T19:17:13.009Z,85.04
2019-01-02T19:20:00.959Z,85.69
2019-01-02T19:22:48.926Z,84.50
2019-01-02T19:25:36.873Z,85.05
2019-01-02T19:28:24.766Z,85.24
2019-01-02T19:31:12.709Z,85.42
2019-01-02T19:34:00.493Z,84.59
2019-01-02T19:36:48.349Z,84.79
2019-01-02T19:39:36.323Z,84.93
2019-01-02T19:42:24.165Z,84.60
2019-01-02T19:44:52.886Z,84.82
2019-01-02T19:47:21.538Z,84.92
2019-01-02T19:50:09.656Z,85.62
2019-01-02T19:55:52.004Z,83.88
2019-01-02T19:58:39.916Z,84.64
2019-01-02T20:04:21.446Z,84.68
2019-01-02T20:07:09.301Z,83.86
2019-01-02T20:09:57.225Z,84.59
2019-01-02T20:12:45.225Z,84.48
2019-01-02T20:15:53.625Z,85.10
2019-01-02T20:18:41.586Z,85.12
2019-01-02T20:21:29.426Z,84.66
2019-01-02T20:24:17.340Z,86.65
2019-01-02T20:27:05.299Z,87.19
2019-01-02T20:29:53.276Z,87.87
2019-01-02T20:35:28.981Z,87.59
2019-01-02T20:38:16.995Z,87.94
2019-01-02T20:41:05.036Z,88.46
2019-01-02T20:43:54.639Z,89.22
2019-01-02T20:46:42.649Z,88.79
2019-01-02T20:49:30.688Z,89.13
2019-01-02T20:52:18.561Z,87.47
2019-01-02T20:55:06.504Z,88.33
2019-01-02T20:57:54.599Z,88.67
2019-01-02T21:00:23.369Z,88.82
2019-01-02T21:03:11.269Z,88.93
2019-01-02T21:05:59.102Z,89.32
2019-01-02T21:08:47.097Z,90.32
2019-01-02T21:11:34.872Z,89.20
2019-01-02T21:14:22.830Z,88.93
2019-01-02T21:17:10.759Z,89.22
2019-01-02T21:19:59.719Z,89.35
2019-01-02T21:22:48.373Z,87.89
2019-01-02T21:25:36.207Z,88.42
2019-01-02T21:28:24.286Z,89.00
2019-01-02T21:31:12.241Z,89.09
2019-01-02T21:34:00.216Z,89.28
2019-01-02T21:36:48.000Z,89.17
2019-01-02T21:39:35.973Z,89.35
2019-01-02T21:42:23.953Z,89.47
2019-01-02T21:44:53.000Z,89.60
2019-01-02T21:47:42.287Z,90.43
2019-01-02T21:50:30.129Z,90.10
2019-01-02T21:53:18.043Z,91.07
2019-01-02T21:56:06.279Z,92.06
2019-01-02T21:58:54.192Z,92.91
2019-01-02T22:01:42.142Z,93.63
2019-01-02T22:04:29.972Z,93.62
2019-01-02T22:06:58.667Z,93.06
2019-01-02T22:09:46.603Z,93.10
2019-01-02T22:12:34.565Z,93.41
2019-01-02T22:15:22.468Z,93.41
2019-01-02T22:18:10.304Z,93.86
2019-01-02T22:24:05.070Z,93.27
2019-01-02T22:26:52.999Z,92.07
2019-01-02T22:29:40.954Z,91.16
2019-01-02T22:32:28.882Z,90.80
2019-01-02T22:35:16.843Z,90.95
2019-01-02T22:38:04.771Z,90.12
2019-01-02T22:40:52.606Z,90.33
2019-01-02T22:43:40.525Z,90.18
2019-01-02T22:51:36.622Z,89.93
2019-01-02T22:54:24.595Z,89.88
2019-01-02T22:57:12.598Z,89.64
2019-01-02T22:59:41.306Z,89.75
2019-01-02T23:05:37.534Z,89.34
2019-01-02T23:11:34.020Z,89.71
2019-01-02T23:14:42.652Z,90.21
2019-01-02T23:17:49.667Z,90.74
2019-01-02T23:23:45.628Z,91.50
2019-01-02T23:26:52.588Z,91.86
2019-01-02T23:29:59.609Z,92.29
2019-01-02T23:33:06.572Z,92.52
2019-01-02T23:36:13.599Z,92.74
2019-01-02T23:44:51.134Z,94.88
2019-01-02T23:47:58.335Z,95.24
2019-01-02T23:50:46.166Z,95.66
2019-01-02T23:53:53.171Z,95.88
2019-01-02T23:57:00.143Z,95.62
